Time;durP1;ratioP1;P1;durP2;ratioP2;P2;SDS_P1;SDS_P2;PMS_P1;PMS_P2;Temp;Humidity;BMP_temperature;BMP_pressure;BME280_temperature;BME280_humidity;BME280_pressure;Samples;Min_cycle;Max_cycle;Signal;HPM_P1;HPM_P2
2022/09/22 00:02:23;;;;;;;;;5.40;5.40;31.20;99.90;;;;;;4977401;28;8889;-67
2022/09/22 00:04:54;;;;;;;;;7.80;7.60;31.20;99.90;;;;;;4955283;28;9599;-68
2022/09/22 00:07:28;;;;;;;;;6.80;6.80;31.10;99.90;;;;;;4985644;28;8903;-67
2022/09/22 00:10:06;;;;;;;;;7.00;7.00;31.00;99.90;;;;;;4979588;28;8858;-69
2022/09/22 00:12:37;;;;;;;;;8.00;8.00;30.90;99.90;;;;;;4975523;28;8853;-66
2022/09/22 00:15:09;;;;;;;;;9.40;9.40;30.70;99.90;;;;;;4976379;28;8874;-68
2022/09/22 00:17:42;;;;;;;;;9.80;9.80;30.80;99.90;;;;;;4972897;28;8878;-67
2022/09/22 00:20:14;;;;;;;;;8.80;8.20;30.80;99.90;;;;;;4975026;28;8846;-65
2022/09/22 00:22:49;;;;;;;;;10.20;10.20;30.70;99.90;;;;;;4973950;28;8893;-64
2022/09/22 00:25:19;;;;;;;;;9.00;8.60;30.70;99.90;;;;;;4983393;28;8877;-63
2022/09/22 00:27:53;;;;;;;;;8.60;8.60;30.60;99.90;;;;;;4977038;28;8887;-63
2022/09/22 00:30:23;;;;;;;;;6.80;6.80;30.60;99.90;;;;;;4974195;28;8901;-63
2022/09/22 00:32:56;;;;;;;;;8.60;8.60;30.60;99.90;;;;;;4978424;28;8874;-64
2022/09/22 00:35:26;;;;;;;;;8.80;8.80;30.60;99.90;;;;;;4967868;28;8884;-62
2022/09/22 00:37:57;;;;;;;;;9.60;9.60;30.60;99.90;;;;;;4970326;28;8914;-61
2022/09/22 00:40:28;;;;;;;;;8.60;8.60;30.40;99.90;;;;;;4972538;28;8852;-60
2022/09/22 00:43:18;;;;;;;;;8.40;8.40;30.30;99.90;;;;;;4980865;28;8907;-60
2022/09/22 00:46:17;;;;;;;;;9.00;9.00;30.30;99.90;;;;;;4973217;28;8877;-59
2022/09/22 00:48:59;;;;;;;;;8.60;8.60;30.10;99.90;;;;;;4967004;28;8873;-59
2022/09/22 00:51:39;;;;;;;;;9.80;9.20;30.10;99.90;;;;;;4974692;28;8901;-61
2022/09/22 00:54:14;;;;;;;;;5.60;5.20;30.00;99.90;;;;;;4964817;28;9738;-60
2022/09/22 00:56:55;;;;;;;;;8.80;8.80;30.00;99.90;;;;;;4984939;28;8890;-61
2022/09/22 00:59:30;;;;;;;;;5.80;5.40;29.90;99.90;;;;;;4978644;28;8870;-60
2022/09/22 01:02:05;;;;;;;;;9.40;9.40;29.90;99.90;;;;;;4976361;28;8870;-60
2022/09/22 01:04:42;;;;;;;;;9.00;9.00;29.80;99.90;;;;;;4975488;28;8877;-61
2022/09/22 01:07:12;;;;;;;;;8.00;8.00;29.70;99.90;;;;;;4974103;28;8877;-60
2022/09/22 01:09:45;;;;;;;;;8.00;7.00;29.60;99.90;;;;;;4948846;28;8882;-60
2022/09/22 01:12:21;;;;;;;;;9.00;9.00;29.50;99.90;;;;;;4976041;28;8882;-59
2022/09/22 01:15:06;;;;;;;;;8.60;8.60;29.50;99.90;;;;;;4973417;28;8886;-63
2022/09/22 01:17:42;;;;;;;;;10.60;10.60;29.40;99.90;;;;;;4972515;28;8858;-61
2022/09/22 01:20:32;;;;;;;;;8.60;8.60;29.30;99.90;;;;;;4972061;28;8846;-59
2022/09/22 01:23:26;;;;;;;;;10.40;10.40;29.30;99.90;;;;;;4975598;28;8890;-59
2022/09/22 01:26:25;;;;;;;;;7.40;7.40;29.20;99.90;;;;;;4987885;28;8870;-62
2022/09/22 01:29:14;;;;;;;;;9.40;9.40;29.10;99.90;;;;;;4976895;28;8854;-61
2022/09/22 01:32:05;;;;;;;;;8.80;8.80;29.10;99.90;;;;;;4972185;28;9553;-60
2022/09/22 01:35:11;;;;;;;;;8.00;8.00;29.00;99.90;;;;;;4969654;28;8839;-61
2022/09/22 01:38:11;;;;;;;;;10.20;9.20;28.90;99.90;;;;;;4971021;28;8877;-63
2022/09/22 01:40:58;;;;;;;;;11.20;11.20;28.80;99.90;;;;;;4963823;28;8875;-61
2022/09/22 01:44:03;;;;;;;;;10.20;10.20;28.70;99.90;;;;;;4970498;28;8851;-61
2022/09/22 01:46:47;;;;;;;;;9.60;9.60;28.60;99.90;;;;;;4969592;28;9043;-60
2022/09/22 01:49:24;;;;;;;;;10.20;10.20;28.60;99.90;;;;;;4987011;28;9001;-61
2022/09/22 01:52:06;;;;;;;;;11.00;11.00;28.60;99.90;;;;;;4967916;28;8856;-60
2022/09/22 01:54:51;;;;;;;;;8.40;8.40;28.50;99.90;;;;;;4958172;28;8867;-60
2022/09/22 01:57:40;;;;;;;;;10.40;10.40;28.50;99.90;;;;;;4963832;28;8875;-61
2022/09/22 02:00:15;;;;;;;;;8.80;8.80;28.40;99.90;;;;;;4976377;28;8871;-60
2022/09/22 02:02:52;;;;;;;;;10.40;10.40;28.50;99.90;;;;;;4970130;28;8874;-60
2022/09/22 02:05:34;;;;;;;;;8.40;8.40;28.50;99.90;;;;;;4970482;28;8850;-58
2022/09/22 02:08:13;;;;;;;;;9.40;9.40;28.40;99.90;;;;;;4973027;28;8937;-60
2022/09/22 02:10:47;;;;;;;;;8.60;8.60;28.50;99.90;;;;;;4963520;28;8882;-61
2022/09/22 02:13:18;;;;;;;;;7.60;7.60;28.70;99.90;;;;;;4976024;28;8862;-59
2022/09/22 02:16:00;;;;;;;;;9.00;9.00;28.90;99.90;;;;;;4961461;28;8874;-60
2022/09/22 02:19:09;;;;;;;;;8.60;8.60;29.10;99.90;;;;;;4957146;28;8850;-60
2022/09/22 02:21:46;;;;;;;;;9.00;9.00;29.10;99.90;;;;;;4966334;28;8896;-62
2022/09/22 02:24:33;;;;;;;;;9.40;9.40;29.10;99.90;;;;;;4969346;28;8835;-62
2022/09/22 02:27:10;;;;;;;;;7.40;7.40;29.20;99.90;;;;;;4972317;28;8889;-61
2022/09/22 02:30:13;;;;;;;;;9.00;9.00;29.10;99.90;;;;;;4969833;28;8886;-61
2022/09/22 02:32:54;;;;;;;;;9.60;9.60;29.10;99.90;;;;;;4977992;28;8886;-61
2022/09/22 02:35:31;;;;;;;;;10.00;10.00;29.10;99.90;;;;;;4971240;28;8905;-58
2022/09/22 02:38:11;;;;;;;;;9.60;9.60;29.10;99.90;;;;;;4985195;28;8861;-59
2022/09/22 02:41:11;;;;;;;;;6.20;6.20;29.00;99.90;;;;;;4965176;28;8830;-60
2022/09/22 02:43:59;;;;;;;;;8.40;8.40;29.00;99.90;;;;;;4966568;28;8857;-61
2022/09/22 02:46:46;;;;;;;;;8.60;8.60;29.00;99.90;;;;;;4976334;28;9543;-62
2022/09/22 02:49:20;;;;;;;;;7.80;7.80;29.00;99.90;;;;;;4949870;28;9680;-61
2022/09/22 02:51:53;;;;;;;;;9.40;9.40;28.90;99.90;;;;;;4970132;28;9590;-62
2022/09/22 02:54:24;;;;;;;;;10.00;10.00;28.90;99.90;;;;;;4972990;28;8849;-65
2022/09/22 02:56:57;;;;;;;;;9.20;9.20;28.80;99.90;;;;;;4972149;28;8882;-61
2022/09/22 02:59:29;;;;;;;;;8.60;8.60;28.80;99.90;;;;;;4972839;28;8913;-63
2022/09/22 03:02:04;;;;;;;;;9.20;9.20;28.80;99.90;;;;;;4960753;28;8846;-64
2022/09/22 03:04:35;;;;;;;;;10.40;10.40;28.70;99.90;;;;;;4975232;28;8890;-63
2022/09/22 03:07:09;;;;;;;;;10.20;10.20;28.70;99.90;;;;;;4977175;28;9762;-63
2022/09/22 03:09:41;;;;;;;;;9.40;9.40;28.70;99.90;;;;;;4974673;28;8878;-61
2022/09/22 03:12:12;;;;;;;;;8.20;8.20;28.70;99.90;;;;;;4985301;28;8844;-62
2022/09/22 03:14:48;;;;;;;;;8.80;8.80;28.60;99.90;;;;;;4977922;28;8838;-63
2022/09/22 03:17:18;;;;;;;;;10.00;10.00;28.50;99.90;;;;;;4974101;28;8874;-62
2022/09/22 03:19:49;;;;;;;;;10.40;10.40;28.50;99.90;;;;;;4972547;28;8905;-61
2022/09/22 03:22:20;;;;;;;;;9.20;9.20;28.60;99.90;;;;;;4971358;28;8877;-59
2022/09/22 03:24:51;;;;;;;;;9.00;9.00;28.60;99.90;;;;;;4967293;28;9637;-62
2022/09/22 03:27:26;;;;;;;;;10.00;10.00;28.60;99.90;;;;;;4992862;28;9585;-64
2022/09/22 03:30:02;;;;;;;;;9.60;9.60;28.40;99.90;;;;;;4967143;28;8878;-60
2022/09/22 03:32:36;;;;;;;;;10.00;10.00;28.30;99.90;;;;;;4972485;28;8882;-61
2022/09/22 03:35:10;;;;;;;;;8.80;8.80;28.20;99.90;;;;;;4968825;28;9846;-63
2022/09/22 03:37:42;;;;;;;;;10.80;10.80;28.10;99.90;;;;;;4976886;28;8893;-63
2022/09/22 03:40:16;;;;;;;;;8.60;8.60;28.00;99.90;;;;;;4969928;28;8869;-60
2022/09/22 03:42:48;;;;;;;;;10.60;10.60;27.90;99.90;;;;;;4984582;28;8854;-59
2022/09/22 03:45:19;;;;;;;;;10.00;10.00;27.90;99.90;;;;;;4954667;28;8899;-61
2022/09/22 03:47:54;;;;;;;;;9.60;9.60;27.90;99.90;;;;;;4972511;28;8895;-62
2022/09/22 03:50:23;;;;;;;;;8.20;8.20;27.80;99.90;;;;;;4987968;28;8873;-62
2022/09/22 03:52:57;;;;;;;;;7.00;7.00;27.90;99.90;;;;;;4975663;28;8881;-60
2022/09/22 03:55:26;;;;;;;;;9.00;9.00;28.00;99.90;;;;;;4967814;28;8862;-62
2022/09/22 03:57:59;;;;;;;;;8.80;8.00;28.00;99.90;;;;;;4975003;28;8842;-62
2022/09/22 04:00:30;;;;;;;;;8.60;8.60;28.00;99.90;;;;;;4972868;28;9695;-63
2022/09/22 04:03:02;;;;;;;;;8.20;8.20;28.00;99.90;;;;;;4960580;28;8855;-63
2022/09/22 04:05:35;;;;;;;;;8.00;8.00;28.00;99.90;;;;;;4971962;28;8836;-62
2022/09/22 04:08:08;;;;;;;;;7.20;7.20;28.00;99.90;;;;;;4974070;28;8877;-64
2022/09/22 04:10:39;;;;;;;;;10.60;10.60;27.90;99.90;;;;;;4970132;28;9641;-63
2022/09/22 04:13:10;;;;;;;;;9.00;9.00;27.90;99.90;;;;;;4973491;28;8880;-63
2022/09/22 04:15:45;;;;;;;;;9.40;9.40;28.00;99.90;;;;;;4977308;28;8898;-63
2022/09/22 04:18:16;;;;;;;;;8.40;8.40;28.00;99.90;;;;;;4972236;28;8927;-62
2022/09/22 04:20:50;;;;;;;;;9.00;9.00;27.90;99.90;;;;;;4987633;28;8835;-62
2022/09/22 04:23:24;;;;;;;;;9.80;9.80;27.90;99.90;;;;;;4967842;28;8835;-62
2022/09/22 04:25:55;;;;;;;;;10.20;10.20;27.90;99.90;;;;;;4975677;28;8854;-63
2022/09/22 04:28:24;;;;;;;;;9.40;9.40;27.80;99.90;;;;;;4967164;28;9641;-62
2022/09/22 04:30:55;;;;;;;;;11.00;11.00;27.80;99.90;;;;;;4974230;28;8863;-63
2022/09/22 04:33:25;;;;;;;;;9.40;9.40;27.70;99.90;;;;;;4970165;28;8870;-62
2022/09/22 04:35:58;;;;;;;;;9.00;9.00;27.70;99.90;;;;;;4957239;28;8885;-63
2022/09/22 04:38:30;;;;;;;;;8.20;8.20;27.60;99.90;;;;;;4973089;28;9799;-63
2022/09/22 04:41:01;;;;;;;;;8.60;8.60;27.60;99.90;;;;;;4976141;28;9616;-63
2022/09/22 04:43:33;;;;;;;;;10.00;10.00;27.50;99.90;;;;;;4974075;28;8931;-63
2022/09/22 04:46:05;;;;;;;;;5.40;5.40;27.50;99.90;;;;;;4971548;28;9012;-61
2022/09/22 04:48:37;;;;;;;;;8.40;8.40;27.40;99.90;;;;;;4980142;28;8847;-59
2022/09/22 04:51:07;;;;;;;;;9.00;9.00;27.30;99.90;;;;;;4971803;28;9589;-60
2022/09/22 04:53:40;;;;;;;;;8.00;8.00;27.30;99.90;;;;;;4971815;28;8843;-60
2022/09/22 04:56:10;;;;;;;;;9.00;9.00;27.30;99.90;;;;;;4974445;28;8855;-60
2022/09/22 04:58:40;;;;;;;;;9.00;9.00;27.30;99.90;;;;;;4971255;28;8901;-59
2022/09/22 05:01:12;;;;;;;;;7.00;7.00;27.20;99.90;;;;;;4975623;28;8866;-59
2022/09/22 05:03:44;;;;;;;;;7.40;7.40;27.20;99.90;;;;;;4973343;28;9557;-59
2022/09/22 05:06:16;;;;;;;;;10.00;10.00;27.10;99.90;;;;;;4972268;28;8843;-60
2022/09/22 05:08:47;;;;;;;;;9.00;9.00;27.00;99.90;;;;;;4972831;28;8879;-60
2022/09/22 05:11:22;;;;;;;;;11.00;9.60;26.90;99.90;;;;;;4971560;28;9019;-61
2022/09/22 05:13:55;;;;;;;;;8.60;8.60;26.90;99.90;;;;;;4974929;28;8859;-60
2022/09/22 05:16:27;;;;;;;;;8.20;8.20;26.90;99.90;;;;;;4976553;28;8873;-59
2022/09/22 05:19:00;;;;;;;;;8.00;8.00;26.80;99.90;;;;;;4966755;28;8896;-60
2022/09/22 05:21:31;;;;;;;;;8.60;8.60;26.80;99.90;;;;;;4971999;28;9433;-60
2022/09/22 05:24:02;;;;;;;;;8.80;8.80;26.70;99.90;;;;;;4971899;28;8845;-63
2022/09/22 05:26:36;;;;;;;;;8.75;8.75;26.70;99.90;;;;;;4986367;28;8909;-61
2022/09/22 05:29:09;;;;;;;;;6.80;6.80;26.50;99.90;;;;;;4972468;28;9032;-61
2022/09/22 05:31:39;;;;;;;;;9.00;9.00;26.50;99.90;;;;;;4972227;28;8932;-60
2022/09/22 05:34:10;;;;;;;;;9.50;9.50;26.50;99.90;;;;;;4970388;28;8874;-61
2022/09/22 05:36:43;;;;;;;;;11.00;11.00;26.50;99.90;;;;;;4973711;28;8932;-62
2022/09/22 05:39:14;;;;;;;;;8.00;8.00;26.50;99.90;;;;;;4977663;28;9334;-60
2022/09/22 05:41:48;;;;;;;;;10.00;10.00;26.40;99.90;;;;;;4962934;28;9072;-60
2022/09/22 05:44:20;;;;;;;;;9.20;9.20;26.40;99.90;;;;;;4975303;28;8870;-62
2022/09/22 05:46:51;;;;;;;;;8.60;8.60;26.30;99.90;;;;;;4972296;28;8914;-62
2022/09/22 05:49:25;;;;;;;;;9.40;9.40;26.30;99.90;;;;;;4970333;28;8831;-62
2022/09/22 05:51:57;;;;;;;;;9.00;9.00;26.30;99.90;;;;;;4970485;28;8848;-62
2022/09/22 05:54:28;;;;;;;;;9.00;9.00;26.20;99.90;;;;;;4966368;28;8893;-62
2022/09/22 05:57:01;;;;;;;;;11.75;11.75;26.10;99.90;;;;;;4975242;28;8850;-61
2022/09/22 05:59:33;;;;;;;;;11.00;11.00;26.10;99.90;;;;;;4968521;28;8885;-62
2022/09/22 06:02:07;;;;;;;;;9.50;9.50;26.00;99.90;;;;;;4973557;28;8866;-62
2022/09/22 06:04:53;;;;;;;;;8.25;8.25;25.90;99.90;;;;;;4965686;28;8835;-61
2022/09/22 06:07:23;;;;;;;;;10.00;10.00;25.90;99.90;;;;;;4969164;28;8875;-61
2022/09/22 06:09:54;;;;;;;;;10.40;10.40;25.90;99.90;;;;;;4971867;28;8877;-60
2022/09/22 06:12:24;;;;;;;;;10.25;10.25;25.90;99.90;;;;;;4983557;28;9228;-61
2022/09/22 06:14:55;;;;;;;;;8.25;8.25;25.80;99.90;;;;;;4966397;28;8879;-60
2022/09/22 06:17:32;;;;;;;;;9.75;9.75;25.80;99.90;;;;;;4965761;28;8899;-60
2022/09/22 06:20:04;;;;;;;;;8.50;8.50;25.80;99.90;;;;;;4974233;28;8846;-62
2022/09/22 06:22:36;;;;;;;;;10.00;10.00;25.80;99.90;;;;;;4966005;28;8869;-62
2022/09/22 06:25:08;;;;;;;;;11.50;11.25;25.80;99.90;;;;;;4966632;28;8871;-60
2022/09/22 06:27:39;;;;;;;;;9.00;9.00;25.80;99.90;;;;;;4974897;28;8880;-59
2022/09/22 06:30:13;;;;;;;;;12.00;11.67;25.70;99.90;;;;;;4967699;28;9407;-62
2022/09/22 06:32:53;;;;;;;;;11.50;11.50;25.70;99.90;;;;;;4981583;28;8890;-61
2022/09/22 06:35:29;;;;;;;;;10.00;10.00;25.60;99.90;;;;;;4965030;28;8855;-60
2022/09/22 06:38:03;;;;;;;;;11.00;10.50;25.60;99.90;;;;;;4972473;28;8872;-60
2022/09/22 06:40:38;;;;;;;;;11.00;11.00;25.50;99.90;;;;;;4959764;28;8889;-62
2022/09/22 06:43:21;;;;;;;;;10.50;9.25;25.40;99.90;;;;;;4974028;28;8907;-62
2022/09/22 06:45:54;;;;;;;;;7.50;7.50;25.50;99.90;;;;;;4980291;28;8901;-61
2022/09/22 06:48:30;;;;;;;;;9.00;8.50;25.50;99.90;;;;;;4968687;28;8998;-60
2022/09/22 06:51:03;;;;;;;;;8.75;8.75;25.40;99.90;;;;;;4969795;28;8878;-62
2022/09/22 06:53:33;;;;;;;;;8.50;8.50;25.40;99.90;;;;;;4965431;28;8869;-59
2022/09/22 06:56:04;;;;;;;;;8.50;8.50;25.50;99.90;;;;;;4976775;28;8871;-60
2022/09/22 06:58:35;;;;;;;;;10.25;10.25;25.60;99.90;;;;;;4991014;28;8893;-62
2022/09/22 07:01:29;;;;;;;;;8.75;8.75;25.50;99.90;;;;;;4975188;28;8866;-61
2022/09/22 07:04:04;;;;;;;;;10.75;10.75;25.60;99.90;;;;;;4989480;28;8854;-59
2022/09/22 07:06:36;;;;;;;;;11.00;11.00;25.50;99.90;;;;;;4974332;28;8872;-59
2022/09/22 07:09:08;;;;;;;;;7.00;7.00;25.40;99.90;;;;;;4973334;28;8885;-61
2022/09/22 07:11:38;;;;;;;;;9.25;9.25;25.40;99.90;;;;;;4973800;28;8861;-61
2022/09/22 07:14:11;;;;;;;;;11.75;11.75;25.40;99.90;;;;;;4972623;28;8850;-60
2022/09/22 07:16:43;;;;;;;;;10.00;10.00;25.40;99.90;;;;;;4978116;28;8854;-60
2022/09/22 07:19:14;;;;;;;;;10.00;10.00;25.40;99.90;;;;;;4981193;28;8862;-60
2022/09/22 07:21:46;;;;;;;;;11.00;11.00;25.50;99.90;;;;;;4975465;28;8887;-60
2022/09/22 07:24:17;;;;;;;;;10.75;10.75;25.50;99.90;;;;;;4971704;28;8868;-61
2022/09/22 07:26:50;;;;;;;;;8.50;8.50;25.40;99.90;;;;;;4958088;28;8883;-62
2022/09/22 07:29:20;;;;;;;;;10.25;10.25;25.30;99.90;;;;;;4988609;28;8851;-63
2022/09/22 07:31:54;;;;;;;;;11.75;11.75;25.30;99.90;;;;;;4972180;28;8859;-62
2022/09/22 07:34:25;;;;;;;;;11.75;10.50;25.30;99.90;;;;;;4977803;28;8828;-62
2022/09/22 07:36:58;;;;;;;;;9.50;9.50;25.20;99.90;;;;;;4976795;28;8883;-62
2022/09/22 07:39:30;;;;;;;;;9.00;9.00;25.10;99.90;;;;;;4969718;28;9610;-61
2022/09/22 07:42:06;;;;;;;;;10.50;10.50;25.10;99.90;;;;;;4971168;28;8883;-62
2022/09/22 07:50:17;;;;;;;;;9.25;9.25;25.00;99.90;;;;;;4970333;28;8867;-59
2022/09/22 07:52:52;;;;;;;;;8.00;8.00;25.00;99.90;;;;;;4989891;28;8838;-59
2022/09/22 07:55:23;;;;;;;;;11.00;11.00;25.00;99.90;;;;;;4978529;28;8992;-62
2022/09/22 07:58:00;;;;;;;;;10.00;10.00;24.90;99.90;;;;;;4975311;28;8850;-62
2022/09/22 08:00:35;;;;;;;;;12.00;11.75;24.90;99.90;;;;;;4971911;28;8901;-60
2022/09/22 08:03:08;;;;;;;;;10.25;10.25;24.80;99.90;;;;;;4976202;28;8838;-60
2022/09/22 08:05:40;;;;;;;;;11.00;11.00;24.90;99.90;;;;;;4990666;28;9028;-60
2022/09/22 08:08:11;;;;;;;;;10.75;10.75;24.80;99.90;;;;;;4978252;28;8863;-60
2022/09/22 08:10:44;;;;;;;;;8.00;8.00;24.90;99.90;;;;;;4974375;28;9643;-60
2022/09/22 08:13:19;;;;;;;;;10.50;10.50;24.90;99.90;;;;;;4982415;28;8885;-59
2022/09/22 08:15:55;;;;;;;;;7.75;7.75;24.90;99.90;;;;;;4975730;28;8854;-60
2022/09/22 08:18:27;;;;;;;;;12.00;12.00;24.80;99.90;;;;;;4978450;28;9619;-60
2022/09/22 08:21:00;;;;;;;;;10.00;10.00;24.80;99.90;;;;;;4974978;28;8861;-59
2022/09/22 08:23:33;;;;;;;;;11.00;11.00;24.70;99.90;;;;;;4978520;28;8847;-61
2022/09/22 08:26:09;;;;;;;;;10.00;10.00;24.60;99.90;;;;;;4979849;28;8874;-62
2022/09/22 08:28:41;;;;;;;;;7.00;7.00;24.70;99.90;;;;;;4975847;28;8914;-62
2022/09/22 08:31:18;;;;;;;;;11.25;11.25;24.50;99.90;;;;;;4983933;28;8964;-61
2022/09/22 08:33:51;;;;;;;;;12.00;12.00;24.60;99.90;;;;;;4972781;28;8870;-59
2022/09/22 08:36:24;;;;;;;;;10.75;9.50;24.50;99.90;;;;;;4973079;28;8969;-59
2022/09/22 08:39:00;;;;;;;;;11.25;11.25;24.50;99.90;;;;;;4976799;28;8886;-62
2022/09/22 08:41:56;;;;;;;;;8.75;8.75;24.40;99.90;;;;;;4974678;28;8901;-62
2022/09/22 08:44:37;;;;;;;;;11.25;11.25;24.50;99.90;;;;;;4976900;28;8886;-59
2022/09/22 08:51:50;;;;;;;;;9.25;9.25;24.50;99.90;;;;;;4974035;28;9066;-60
2022/09/22 08:53:50;;;;;;;;;9.25;9.25;24.50;99.90;;;;;;4971649;28;8924;-59
2022/09/22 08:56:29;;;;;;;;;8.00;8.00;24.50;99.90;;;;;;4979990;28;8859;-59
2022/09/22 08:59:23;;;;;;;;;9.75;9.75;24.50;99.90;;;;;;4971598;28;8842;-60
2022/09/22 09:02:37;;;;;;;;;12.25;12.25;24.50;99.90;;;;;;4977223;28;8848;-61
2022/09/22 09:05:41;;;;;;;;;11.00;11.00;24.40;99.90;;;;;;4966622;28;8860;-59
2022/09/22 09:08:38;;;;;;;;;9.50;9.50;24.40;99.90;;;;;;4972141;28;8880;-59
2022/09/22 09:11:27;;;;;;;;;11.00;11.00;24.30;99.90;;;;;;4973010;28;9486;-59
2022/09/22 09:14:17;;;;;;;;;11.00;11.00;24.30;99.90;;;;;;4971871;28;8845;-61
2022/09/22 09:16:57;;;;;;;;;10.25;10.25;24.10;99.90;;;;;;4975441;28;8846;-60
2022/09/22 09:19:52;;;;;;;;;9.50;9.50;24.10;99.90;;;;;;4985538;28;8848;-61
2022/09/22 09:22:39;;;;;;;;;11.25;11.25;24.20;99.90;;;;;;4976998;28;8854;-60
2022/09/22 09:25:21;;;;;;;;;13.50;13.50;24.10;99.90;;;;;;4992662;28;8862;-59
2022/09/22 09:28:05;;;;;;;;;11.00;10.50;23.90;99.90;;;;;;4976727;28;8869;-61
2022/09/22 09:30:50;;;;;;;;;11.25;10.00;23.90;99.90;;;;;;4977047;28;8861;-59
2022/09/22 09:33:37;;;;;;;;;11.25;11.25;23.80;99.90;;;;;;4971069;28;8862;-61
2022/09/22 09:36:19;;;;;;;;;10.25;10.25;23.80;99.90;;;;;;4977486;28;8885;-60
2022/09/22 09:38:58;;;;;;;;;8.00;8.00;23.90;99.90;;;;;;4992771;28;8851;-58
2022/09/22 09:41:34;;;;;;;;;12.50;12.50;23.90;99.90;;;;;;4976304;28;8876;-59
2022/09/22 09:44:08;;;;;;;;;7.50;7.50;23.80;99.90;;;;;;4986827;28;8854;-61
2022/09/22 09:47:18;;;;;;;;;14.25;14.25;23.80;99.90;;;;;;4974582;28;8844;-61
2022/09/22 09:49:50;;;;;;;;;10.75;10.75;23.60;99.90;;;;;;4975450;28;8859;-59
2022/09/22 09:52:24;;;;;;;;;8.75;8.75;23.70;99.90;;;;;;4974039;28;8850;-59
2022/09/22 09:55:01;;;;;;;;;9.00;9.00;23.50;99.90;;;;;;4973191;28;8990;-60
2022/09/22 09:57:32;;;;;;;;;12.00;12.00;23.50;99.90;;;;;;4973427;28;8908;-61
2022/09/22 10:00:31;;;;;;;;;12.00;12.00;23.60;99.90;;;;;;4973742;28;8861;-61
2022/09/22 10:03:26;;;;;;;;;9.75;9.75;23.60;99.90;;;;;;4978601;28;8862;-60
2022/09/22 10:06:05;;;;;;;;;14.00;14.00;23.50;99.90;;;;;;4977784;28;8879;-61
2022/09/22 10:08:48;;;;;;;;;7.50;7.50;23.40;99.90;;;;;;4976909;28;8842;-61
2022/09/22 10:11:32;;;;;;;;;11.75;11.75;23.40;99.90;;;;;;4977640;28;8892;-60
2022/09/22 10:14:16;;;;;;;;;11.00;11.00;23.50;99.90;;;;;;4973784;28;9017;-60
2022/09/22 10:16:55;;;;;;;;;13.00;13.00;23.50;99.90;;;;;;4971709;28;8835;-59
2022/09/22 10:19:29;;;;;;;;;10.50;10.00;23.50;99.90;;;;;;4968085;28;9822;-60
2022/09/22 10:22:23;;;;;;;;;11.25;11.25;23.60;99.90;;;;;;4975972;28;8854;-59
2022/09/22 10:24:59;;;;;;;;;12.00;12.00;23.50;99.90;;;;;;4989323;28;8847;-58
2022/09/22 10:27:31;;;;;;;;;11.25;11.25;23.50;99.90;;;;;;4977197;28;9514;-59
2022/09/22 10:30:23;;;;;;;;;9.50;9.50;23.50;99.90;;;;;;4974674;28;8846;-59
2022/09/22 10:33:11;;;;;;;;;10.75;10.75;23.40;99.90;;;;;;4974838;28;8877;-58
2022/09/22 10:36:15;;;;;;;;;11.25;11.25;23.30;99.90;;;;;;4972487;28;9055;-59
2022/09/22 10:38:46;;;;;;;;;13.50;13.50;23.30;99.90;;;;;;4971797;28;8874;-60
2022/09/22 10:41:29;;;;;;;;;12.50;12.50;23.30;99.90;;;;;;4976053;28;8869;-61
2022/09/22 10:44:17;;;;;;;;;13.00;13.00;23.30;99.90;;;;;;4976226;28;8873;-59
2022/09/22 10:47:25;;;;;;;;;12.50;12.50;23.20;99.90;;;;;;4971322;28;8856;-58
2022/09/22 10:50:40;;;;;;;;;10.25;10.25;23.20;99.90;;;;;;4972756;28;8874;-61
2022/09/22 10:53:38;;;;;;;;;12.00;12.00;23.20;99.90;;;;;;4978527;28;8917;-60
2022/09/22 10:56:28;;;;;;;;;10.50;10.50;23.10;99.90;;;;;;4974730;28;8870;-61
2022/09/22 10:59:05;;;;;;;;;11.75;11.75;23.10;99.90;;;;;;4975611;28;8892;-58
2022/09/22 11:02:08;;;;;;;;;10.50;10.50;23.10;99.90;;;;;;4971958;28;8854;-59
2022/09/22 11:04:37;;;;;;;;;13.00;11.00;23.10;99.90;;;;;;4969375;28;8920;-58
2022/09/22 11:13:50;;;;;;;;;11.00;11.00;23.00;99.90;;;;;;4973983;28;8862;-59
2022/09/22 11:16:49;;;;;;;;;10.75;10.75;23.00;99.90;;;;;;4975280;28;8838;-59
2022/09/22 11:19:27;;;;;;;;;11.50;11.50;22.90;99.90;;;;;;4969477;28;8889;-59
2022/09/22 11:22:11;;;;;;;;;12.50;12.50;22.80;99.90;;;;;;4973414;28;9198;-59
2022/09/22 11:24:58;;;;;;;;;12.50;12.50;22.80;99.90;;;;;;4978104;28;8847;-59
2022/09/22 11:27:56;;;;;;;;;11.25;11.25;22.80;99.90;;;;;;4977373;28;8844;-61
2022/09/22 11:30:38;;;;;;;;;12.50;12.50;22.90;99.90;;;;;;4975011;28;8865;-59
2022/09/22 11:33:23;;;;;;;;;11.75;11.75;22.90;99.90;;;;;;4977187;28;8893;-58
2022/09/22 11:36:18;;;;;;;;;11.50;11.50;22.90;99.90;;;;;;4995716;28;8854;-60
2022/09/22 11:39:08;;;;;;;;;12.25;12.25;23.00;99.90;;;;;;4977512;28;8850;-59
2022/09/22 11:41:45;;;;;;;;;11.75;11.75;23.00;99.90;;;;;;4988847;28;8877;-59
2022/09/22 11:44:42;;;;;;;;;11.75;11.75;22.90;99.90;;;;;;4977908;28;8847;-60
2022/09/22 11:47:21;;;;;;;;;11.25;10.75;23.00;99.90;;;;;;4974572;28;8866;-58
2022/09/22 11:50:24;;;;;;;;;10.25;10.25;22.90;99.90;;;;;;4970591;28;8841;-61
2022/09/22 11:53:11;;;;;;;;;10.25;10.25;22.80;99.90;;;;;;4975879;28;8867;-60
2022/09/22 11:56:00;;;;;;;;;12.00;12.00;22.80;99.90;;;;;;4973727;28;8846;-59
2022/09/22 11:58:33;;;;;;;;;11.25;11.25;22.80;99.90;;;;;;4977832;28;8893;-58
2022/09/22 12:01:19;;;;;;;;;12.00;12.00;22.70;99.90;;;;;;4975312;28;8863;-60
2022/09/22 12:04:04;;;;;;;;;9.50;9.50;22.70;99.90;;;;;;4972726;28;9610;-59
2022/09/22 12:06:41;;;;;;;;;10.75;10.75;22.70;99.90;;;;;;4978973;28;8854;-60
2022/09/22 12:09:29;;;;;;;;;12.00;12.00;22.80;99.90;;;;;;4970130;28;9245;-60
2022/09/22 12:12:08;;;;;;;;;11.25;11.25;22.90;99.90;;;;;;4972327;28;8838;-60
2022/09/22 12:14:41;;;;;;;;;13.25;13.25;23.00;99.90;;;;;;4977809;28;9038;-60
2022/09/22 12:17:40;;;;;;;;;10.50;10.50;23.00;99.90;;;;;;4972699;28;8885;-61
2022/09/22 12:20:24;;;;;;;;;11.50;11.50;22.90;99.90;;;;;;4974096;28;8850;-60
2022/09/22 12:23:19;;;;;;;;;12.75;12.75;22.90;99.90;;;;;;4978014;28;9644;-60
2022/09/22 12:25:53;;;;;;;;;13.00;13.00;22.70;99.90;;;;;;4972208;28;8873;-59
2022/09/22 12:28:27;;;;;;;;;12.75;11.50;22.80;99.90;;;;;;4975838;28;8891;-59
2022/09/22 12:31:05;;;;;;;;;12.25;12.25;22.70;99.90;;;;;;4973269;28;8859;-58
2022/09/22 12:33:39;;;;;;;;;12.50;12.50;22.70;99.90;;;;;;4970940;28;8873;-60
2022/09/22 12:36:09;;;;;;;;;13.75;13.75;22.50;99.90;;;;;;4972588;28;8873;-60
2022/09/22 12:38:41;;;;;;;;;13.00;13.00;22.50;99.90;;;;;;4976047;28;8889;-59
2022/09/22 12:41:18;;;;;;;;;14.25;13.00;22.40;99.90;;;;;;4974321;28;8869;-60
2022/09/22 12:43:50;;;;;;;;;13.25;13.25;22.50;99.90;;;;;;4990676;28;8866;-59
2022/09/22 12:46:28;;;;;;;;;12.00;12.00;22.60;99.90;;;;;;4968742;28;9047;-60
2022/09/22 12:49:08;;;;;;;;;10.50;10.50;22.60;99.90;;;;;;4973608;28;8852;-61
2022/09/22 12:51:40;;;;;;;;;13.50;13.50;22.60;99.90;;;;;;4969314;28;8835;-60
2022/09/22 12:54:22;;;;;;;;;12.50;11.00;22.70;99.90;;;;;;4975693;28;8977;-59
2022/09/22 12:57:10;;;;;;;;;13.67;12.00;22.80;99.90;;;;;;4980542;28;8896;-60
2022/09/22 12:59:39;;;;;;;;;13.00;13.00;22.80;99.90;;;;;;4971492;28;8865;-59
2022/09/22 13:02:14;;;;;;;;;11.50;11.50;22.90;99.90;;;;;;4976162;28;8838;-59
2022/09/22 13:04:59;;;;;;;;;14.00;14.00;22.90;99.90;;;;;;4974207;28;8861;-59
2022/09/22 13:07:38;;;;;;;;;13.50;13.50;23.00;99.90;;;;;;4972742;28;8859;-60
2022/09/22 13:10:22;;;;;;;;;11.75;11.75;23.00;99.90;;;;;;4976991;28;9000;-63
2022/09/22 13:13:11;;;;;;;;;9.75;9.75;23.20;99.90;;;;;;4979679;28;8890;-62
2022/09/22 13:15:48;;;;;;;;;11.00;11.00;23.10;99.90;;;;;;4974613;28;11593;-61
2022/09/22 13:18:39;;;;;;;;;14.00;14.00;23.20;99.90;;;;;;4975073;28;9604;-60
2022/09/22 13:21:17;;;;;;;;;11.50;11.50;23.30;99.90;;;;;;4977653;28;8850;-61
2022/09/22 13:23:58;;;;;;;;;12.75;12.50;23.40;99.90;;;;;;4976094;28;8877;-60
2022/09/22 13:26:32;;;;;;;;;13.00;13.00;23.40;99.90;;;;;;4976994;28;8889;-61
2022/09/22 13:29:20;;;;;;;;;15.25;13.75;23.50;99.90;;;;;;4977134;28;8977;-61
2022/09/22 13:31:57;;;;;;;;;12.00;12.00;23.70;99.90;;;;;;4977288;28;8867;-61
2022/09/22 13:34:34;;;;;;;;;12.50;12.50;23.60;99.90;;;;;;4976383;28;8891;-60
2022/09/22 13:37:18;;;;;;;;;13.75;13.75;23.70;99.90;;;;;;4977509;28;8874;-60
2022/09/22 13:39:51;;;;;;;;;12.00;12.00;23.90;99.90;;;;;;4976845;28;8838;-60
2022/09/22 13:42:32;;;;;;;;;15.00;15.00;23.90;99.90;;;;;;4975583;28;8849;-61
2022/09/22 13:45:22;;;;;;;;;14.00;14.00;23.90;99.90;;;;;;4978324;28;8851;-60
2022/09/22 13:48:07;;;;;;;;;14.00;12.50;24.10;99.90;;;;;;4976959;28;8834;-61
2022/09/22 13:50:52;;;;;;;;;13.25;13.25;24.20;99.90;;;;;;4972242;28;8863;-61
2022/09/22 13:53:24;;;;;;;;;14.50;13.50;24.30;99.90;;;;;;4979447;28;10103;-59
2022/09/22 13:55:56;;;;;;;;;12.25;12.25;24.30;99.90;;;;;;4971893;28;8835;-59
2022/09/22 13:58:51;;;;;;;;;13.50;13.50;24.40;99.90;;;;;;4978680;28;8830;-62
2022/09/22 14:01:25;;;;;;;;;14.50;14.50;24.50;99.90;;;;;;4978770;28;8867;-63